createdAt,value
2019-05-16T00:03:53.930Z,8.44
2019-05-16T00:06:23.550Z,8.36
2019-05-16T00:08:53.280Z,8.35
2019-05-16T00:11:22.788Z,8.36
2019-05-16T00:13:52.165Z,8.34
2019-05-16T00:21:58.133Z,8.25
2019-05-16T00:25:08.659Z,8.22
2019-05-16T00:27:39.446Z,8.21
2019-05-16T00:33:12.003Z,8.19
2019-05-16T00:35:41.992Z,8.15
2019-05-16T00:38:11.526Z,8.11
2019-05-16T00:43:37.895Z,8.11
2019-05-16T00:46:08.351Z,8.07
2019-05-16T00:48:39.607Z,8.04
2019-05-16T00:51:48.645Z,7.97
2019-05-16T00:54:18.610Z,7.94
2019-05-16T00:57:29.893Z,7.93
2019-05-16T01:00:12.119Z,7.89
2019-05-16T01:03:20.851Z,7.91
2019-05-16T01:08:39.005Z,7.89
2019-05-16T01:11:08.416Z,7.90
2019-05-16T01:13:38.160Z,7.88
2019-05-16T01:16:08.960Z,7.85
2019-05-16T01:24:33.533Z,7.83
2019-05-16T01:27:02.960Z,7.83
2019-05-16T01:32:31.858Z,7.77
2019-05-16T01:34:59.742Z,7.74
2019-05-16T01:37:29.139Z,7.71
2019-05-16T01:39:58.864Z,7.68
2019-05-16T01:42:28.220Z,7.65
2019-05-16T01:44:57.951Z,7.63
2019-05-16T01:47:29.319Z,7.62
2019-05-16T01:49:59.062Z,7.60
2019-05-16T01:52:29.072Z,7.61
2019-05-16T01:57:55.712Z,7.61
2019-05-16T02:00:27.943Z,7.57
2019-05-16T02:02:57.934Z,7.58
2019-05-16T02:05:28.021Z,7.62
2019-05-16T02:07:59.410Z,7.60
2019-05-16T02:13:34.920Z,7.61
2019-05-16T02:18:43.363Z,7.65
2019-05-16T02:21:12.807Z,7.66
2019-05-16T02:24:02.168Z,7.68
2019-05-16T02:26:32.400Z,7.69
2019-05-16T02:29:01.953Z,7.62
2019-05-16T02:31:31.540Z,7.65
2019-05-16T02:34:04.937Z,7.65
2019-05-16T02:37:24.462Z,7.67
2019-05-16T02:39:45.176Z,7.65
2019-05-16T02:42:14.724Z,7.64
2019-05-16T02:44:44.188Z,7.66
2019-05-16T02:50:02.987Z,7.62
2019-05-16T02:58:51.661Z,7.59
2019-05-16T03:01:21.603Z,7.60
2019-05-16T03:07:03.055Z,7.68
2019-05-16T03:25:01.124Z,7.87
2019-05-16T03:30:23.630Z,7.84
2019-05-16T03:32:54.824Z,7.82
2019-05-16T03:35:24.471Z,7.87
2019-05-16T03:40:55.146Z,7.96
2019-05-16T03:44:03.801Z,8.04
2019-05-16T03:47:12.996Z,8.07
2019-05-16T03:52:23.513Z,8.18
2019-05-16T03:54:52.885Z,8.25
2019-05-16T03:57:22.511Z,8.28
2019-05-16T04:03:06.626Z,8.35
2019-05-16T04:05:35.983Z,8.36
2019-05-16T04:08:44.709Z,8.39
2019-05-16T04:11:18.089Z,8.45
2019-05-16T04:13:45.461Z,8.53
2019-05-16T04:25:07.269Z,8.79
2019-05-16T04:28:15.953Z,8.89
2019-05-16T04:30:45.602Z,8.97
2019-05-16T04:33:15.002Z,9.11
2019-05-16T04:36:23.870Z,9.18
2019-05-16T04:38:53.287Z,9.27
2019-05-16T04:41:22.743Z,9.50
2019-05-16T04:43:52.250Z,9.67
2019-05-16T04:46:21.816Z,9.95
2019-05-16T04:48:51.411Z,10.57
2019-05-16T04:51:22.013Z,12.83
2019-05-16T04:53:52.518Z,14.66
2019-05-16T04:57:01.753Z,15.73
2019-05-16T04:59:52.413Z,16.18
2019-05-16T05:11:21.657Z,13.16
2019-05-16T05:13:52.258Z,12.70
2019-05-16T05:16:21.638Z,12.48
2019-05-16T05:18:51.648Z,12.46
2019-05-16T05:21:23.007Z,12.22
2019-05-16T05:23:52.412Z,12.10
2019-05-16T05:26:41.604Z,12.04
2019-05-16T05:32:14.686Z,12.14
2019-05-16T05:34:46.182Z,11.89
2019-05-16T05:37:15.885Z,11.70
2019-05-16T05:39:45.598Z,11.72
2019-05-16T05:42:15.122Z,12.03
2019-05-16T05:45:24.185Z,12.19
2019-05-16T05:51:00.206Z,12.22
2019-05-16T05:53:30.305Z,12.34
2019-05-16T05:56:01.550Z,12.49
2019-05-16T05:58:31.211Z,12.65
2019-05-16T06:04:02.473Z,12.81
2019-05-16T06:06:31.977Z,12.81
2019-05-16T06:09:52.472Z,12.92
2019-05-16T06:12:12.271Z,12.61
2019-05-16T06:14:41.980Z,12.85
2019-05-16T06:17:13.388Z,13.01
2019-05-16T06:19:43.246Z,13.16
2019-05-16T06:22:12.746Z,13.16
2019-05-16T06:27:37.468Z,13.42
2019-05-16T06:30:46.328Z,13.51
2019-05-16T06:33:16.039Z,13.61
2019-05-16T06:36:24.789Z,13.72
2019-05-16T06:38:54.194Z,13.68
2019-05-16T06:41:24.054Z,13.71
2019-05-16T06:43:53.554Z,13.88
2019-05-16T06:46:23.065Z,14.14
2019-05-16T06:49:31.823Z,14.30
2019-05-16T06:52:03.863Z,14.34
2019-05-16T06:54:33.258Z,14.36
2019-05-16T06:57:02.972Z,14.53
2019-05-16T07:02:41.408Z,14.36
2019-05-16T07:05:50.730Z,14.35
2019-05-16T07:08:22.093Z,14.44
2019-05-16T07:13:26.944Z,14.76
2019-05-16T07:19:10.755Z,15.16
2019-05-16T07:21:40.316Z,15.29
2019-05-16T07:24:10.902Z,15.52
2019-05-16T07:27:21.899Z,15.69
2019-05-16T07:29:52.603Z,15.83
2019-05-16T07:32:22.200Z,15.92
2019-05-16T07:34:51.997Z,16.01
2019-05-16T07:37:21.603Z,16.16
2019-05-16T07:39:51.361Z,16.41
2019-05-16T07:42:22.760Z,16.62
2019-05-16T07:45:11.507Z,16.80
2019-05-16T07:47:43.284Z,16.89
2019-05-16T07:50:51.987Z,16.87
2019-05-16T07:53:21.843Z,16.90
2019-05-16T07:59:00.914Z,16.97
2019-05-16T08:01:31.115Z,17.18
2019-05-16T08:04:00.747Z,17.15
2019-05-16T08:09:26.323Z,16.53
2019-05-16T08:15:05.205Z,15.91
2019-05-16T08:21:01.635Z,16.41
2019-05-16T08:23:31.364Z,16.55
2019-05-16T08:26:01.436Z,16.57
2019-05-16T08:31:21.744Z,16.57
2019-05-16T08:33:55.275Z,16.81
2019-05-16T08:36:24.979Z,16.94
2019-05-16T08:41:51.890Z,17.64
2019-05-16T08:44:21.885Z,17.24
2019-05-16T08:52:23.590Z,17.44
2019-05-16T08:54:53.204Z,17.64
2019-05-16T09:01:01.935Z,17.36
2019-05-16T09:03:32.074Z,17.34
2019-05-16T09:06:02.807Z,17.20
2019-05-16T09:08:33.042Z,17.06
2019-05-16T09:10:41.537Z,17.08
2019-05-16T09:11:26.942Z,16.99
2019-05-16T09:16:39.050Z,16.42
2019-05-16T09:19:11.005Z,16.64
2019-05-16T09:21:40.393Z,16.73
2019-05-16T09:27:19.372Z,16.82
2019-05-16T09:29:49.142Z,17.02
2019-05-16T09:32:21.600Z,17.16
2019-05-16T09:34:50.206Z,16.88
2019-05-16T09:37:19.844Z,16.71
2019-05-16T09:39:49.262Z,16.82
2019-05-16T09:42:57.966Z,16.72
2019-05-16T09:45:28.292Z,16.87
2019-05-16T09:47:57.903Z,16.70
2019-05-16T09:51:06.850Z,16.77
2019-05-16T09:53:37.936Z,16.84
2019-05-16T09:56:07.509Z,16.97
2019-05-16T09:58:37.449Z,17.07
2019-05-16T10:04:23.531Z,17.15
2019-05-16T10:06:52.887Z,17.06
2019-05-16T10:09:38.561Z,16.93
2019-05-16T10:12:08.276Z,16.93
2019-05-16T10:15:07.509Z,17.18
2019-05-16T10:17:37.338Z,17.16
2019-05-16T10:23:36.372Z,17.09
2019-05-16T10:26:05.658Z,17.50
2019-05-16T10:28:38.448Z,16.77
2019-05-16T10:31:07.890Z,15.48
2019-05-16T10:33:58.121Z,16.64
2019-05-16T10:36:28.991Z,16.99
2019-05-16T10:42:22.050Z,17.41
2019-05-16T10:44:41.224Z,17.61
2019-05-16T10:47:10.649Z,17.75
2019-05-16T10:53:58.133Z,18.02
2019-05-16T10:56:00.165Z,17.94
2019-05-16T10:58:36.933Z,17.84
2019-05-16T11:01:27.354Z,18.17
2019-05-16T11:03:51.475Z,18.04
2019-05-16T11:09:09.649Z,18.32
2019-05-16T11:11:39.070Z,18.20
2019-05-16T11:14:09.288Z,18.19
2019-05-16T11:16:40.816Z,17.87
2019-05-16T11:19:18.147Z,17.36
2019-05-16T11:21:46.702Z,16.46
2019-05-16T11:24:16.059Z,16.41
2019-05-16T11:26:47.371Z,16.71
2019-05-16T11:29:17.180Z,17.24
2019-05-16T11:31:48.250Z,17.42
2019-05-16T11:34:17.752Z,17.19
2019-05-16T11:39:42.930Z,16.39
2019-05-16T11:42:12.311Z,16.42
2019-05-16T11:44:41.884Z,16.84
2019-05-16T11:47:11.286Z,17.33
2019-05-16T11:50:00.146Z,17.31
2019-05-16T11:52:30.491Z,17.28
2019-05-16T11:55:00.039Z,17.11
2019-05-16T11:57:29.587Z,17.23
2019-05-16T11:59:59.399Z,17.46
2019-05-16T12:02:29.122Z,17.62
2019-05-16T12:04:58.697Z,17.72
2019-05-16T12:07:33.689Z,17.51
2019-05-16T12:09:59.831Z,17.43
2019-05-16T12:12:29.227Z,17.57
2019-05-16T12:14:58.597Z,17.68
2019-05-16T12:17:28.162Z,17.76
2019-05-16T12:19:57.724Z,17.67
2019-05-16T12:22:27.170Z,17.83
2019-05-16T12:24:57.389Z,17.50
2019-05-16T12:27:32.712Z,16.92
2019-05-16T12:29:59.364Z,16.57
2019-05-16T12:32:28.966Z,16.38
2019-05-16T12:34:58.406Z,15.84
2019-05-16T12:40:03.953Z,16.59
2019-05-16T12:42:36.335Z,16.50
2019-05-16T12:48:20.701Z,16.39
2019-05-16T12:50:50.036Z,16.34
2019-05-16T12:53:23.534Z,16.40
2019-05-16T12:55:50.942Z,16.54
2019-05-16T12:58:26.052Z,16.43
2019-05-16T13:00:57.848Z,16.39
2019-05-16T13:03:24.300Z,16.33
2019-05-16T13:05:53.854Z,16.34
2019-05-16T13:08:26.615Z,16.41
2019-05-16T13:10:57.790Z,16.54
2019-05-16T13:13:38.287Z,16.61
2019-05-16T13:16:07.961Z,16.54
2019-05-16T13:21:27.619Z,16.30
2019-05-16T13:23:57.851Z,16.15
2019-05-16T13:26:27.430Z,16.04
2019-05-16T13:28:57.828Z,15.86
2019-05-16T13:31:28.974Z,15.67
2019-05-16T13:33:59.949Z,15.64
2019-05-16T13:36:32.193Z,15.61
2019-05-16T13:39:01.693Z,15.58
2019-05-16T13:41:34.504Z,15.46
2019-05-16T13:44:17.603Z,15.57
2019-05-16T13:46:37.180Z,15.47
2019-05-16T13:49:07.734Z,15.44
2019-05-16T13:51:37.451Z,15.57
2019-05-16T13:54:20.471Z,15.74
2019-05-16T13:56:50.407Z,15.86
2019-05-16T13:59:20.173Z,16.08
2019-05-16T14:01:49.562Z,16.28
2019-05-16T14:04:19.023Z,16.55
2019-05-16T14:06:48.515Z,16.98
2019-05-16T14:09:17.918Z,17.46
2019-05-16T14:11:47.500Z,17.61
2019-05-16T14:14:33.162Z,17.73
2019-05-16T14:16:48.612Z,17.11
2019-05-16T14:19:18.608Z,16.86
2019-05-16T14:21:48.098Z,16.86
2019-05-16T14:24:18.148Z,16.90
2019-05-16T14:26:49.182Z,16.82
2019-05-16T14:29:19.141Z,16.83
2019-05-16T14:31:48.703Z,16.69
2019-05-16T14:34:18.508Z,16.63
2019-05-16T14:36:49.829Z,16.41
2019-05-16T14:39:19.977Z,16.31
2019-05-16T14:41:50.818Z,16.66
2019-05-16T14:44:20.280Z,16.77
2019-05-16T14:46:49.684Z,17.28
2019-05-16T14:49:19.615Z,19.77
2019-05-16T14:51:49.258Z,21.18
2019-05-16T14:54:18.752Z,22.32
2019-05-16T14:56:49.028Z,23.10
2019-05-16T14:59:18.441Z,23.46
2019-05-16T15:01:47.887Z,23.51
2019-05-16T15:04:17.575Z,21.52
2019-05-16T15:06:47.226Z,21.84
2019-05-16T15:09:18.532Z,20.84
2019-05-16T15:11:49.698Z,19.69
2019-05-16T15:14:19.165Z,19.29
2019-05-16T15:16:51.748Z,18.83
2019-05-16T15:19:20.344Z,18.68
2019-05-16T15:21:49.756Z,19.09
2019-05-16T15:24:19.254Z,18.79
2019-05-16T15:26:48.765Z,18.63
2019-05-16T15:29:18.218Z,18.53
2019-05-16T15:31:47.634Z,18.35
2019-05-16T15:34:17.080Z,18.28
2019-05-16T15:36:46.950Z,18.47
2019-05-16T15:42:27.718Z,18.32
2019-05-16T15:44:58.664Z,18.18
2019-05-16T15:47:29.094Z,18.14
2019-05-16T15:49:59.847Z,18.08
2019-05-16T15:55:47.078Z,17.84
2019-05-16T15:58:37.384Z,17.75
2019-05-16T16:01:07.646Z,17.74
2019-05-16T16:03:38.149Z,17.63
2019-05-16T16:06:08.262Z,17.46
2019-05-16T16:08:37.702Z,17.51
2019-05-16T16:11:07.742Z,17.47
2019-05-16T16:13:37.747Z,17.34
2019-05-16T16:16:10.087Z,17.45
2019-05-16T16:18:38.979Z,17.49
2019-05-16T16:21:08.359Z,17.54
2019-05-16T16:23:37.798Z,17.53
2019-05-16T16:26:07.516Z,17.59
2019-05-16T16:28:50.969Z,17.65
2019-05-16T16:31:21.374Z,17.59
2019-05-16T16:33:50.857Z,17.55
2019-05-16T16:36:20.315Z,17.43
2019-05-16T16:38:49.809Z,17.28
2019-05-16T16:41:19.400Z,17.12
2019-05-16T16:43:49.011Z,17.03
2019-05-16T16:46:18.881Z,16.85
2019-05-16T16:48:48.221Z,16.86
2019-05-16T16:51:17.899Z,16.92
2019-05-16T16:53:49.925Z,16.88
2019-05-16T16:56:19.427Z,16.86
2019-05-16T16:58:49.624Z,16.71
2019-05-16T17:04:50.934Z,16.40
2019-05-16T17:07:38.449Z,16.35
2019-05-16T17:13:11.711Z,16.42
2019-05-16T17:15:42.240Z,16.47
2019-05-16T17:20:59.761Z,16.36
2019-05-16T17:23:29.367Z,16.28
2019-05-16T17:25:58.881Z,16.26
2019-05-16T17:28:28.366Z,16.25
2019-05-16T17:30:58.299Z,16.17
2019-05-16T17:36:29.596Z,16.09
2019-05-16T17:38:59.363Z,16.05
2019-05-16T17:41:29.587Z,16.02
2019-05-16T17:43:58.955Z,15.96
2019-05-16T17:46:37.321Z,15.91
2019-05-16T17:49:00.435Z,15.90
2019-05-16T17:51:29.891Z,15.88
2019-05-16T17:53:59.265Z,15.84
2019-05-16T17:57:08.749Z,15.85
2019-05-16T17:59:38.308Z,15.79
2019-05-16T18:02:07.789Z,15.78
2019-05-16T18:04:40.853Z,15.75
2019-05-16T18:07:10.898Z,15.71
2019-05-16T18:12:51.718Z,15.69
2019-05-16T18:15:41.333Z,15.67
2019-05-16T18:18:11.318Z,15.66
2019-05-16T18:20:54.487Z,15.67
2019-05-16T18:23:23.304Z,15.61
2019-05-16T18:28:42.838Z,15.55
2019-05-16T18:31:12.303Z,15.53
2019-05-16T18:33:41.764Z,15.47
2019-05-16T18:36:11.270Z,15.42
2019-05-16T18:39:20.109Z,15.39
2019-05-16T18:41:50.010Z,15.31
2019-05-16T18:44:20.058Z,15.27
2019-05-16T18:49:47.355Z,15.21
2019-05-16T18:52:17.862Z,15.13
2019-05-16T18:55:27.016Z,15.09
2019-05-16T18:57:57.554Z,15.06
2019-05-16T19:00:27.908Z,15.00
2019-05-16T19:02:59.366Z,14.93
2019-05-16T19:05:49.230Z,14.87
2019-05-16T19:08:19.862Z,14.82
2019-05-16T19:10:50.848Z,14.73
2019-05-16T19:13:20.369Z,14.65
2019-05-16T19:16:29.774Z,14.60
2019-05-16T19:18:59.070Z,14.54
2019-05-16T19:21:28.609Z,14.48
2019-05-16T19:24:01.845Z,14.40
2019-05-16T19:26:31.713Z,14.33
2019-05-16T19:29:02.831Z,14.27
2019-05-16T19:34:49.246Z,14.13
2019-05-16T19:37:40.657Z,14.06
2019-05-16T19:40:48.798Z,13.96
2019-05-16T19:43:18.325Z,13.85
2019-05-16T19:45:47.860Z,13.73
2019-05-16T19:48:17.863Z,13.66
2019-05-16T19:51:26.962Z,13.60
2019-05-16T19:53:58.997Z,13.53
2019-05-16T19:59:44.377Z,13.30
2019-05-16T20:05:23.596Z,13.14
2019-05-16T20:08:32.572Z,13.06
2019-05-16T20:11:02.147Z,12.97
2019-05-16T20:16:41.482Z,12.81
2019-05-16T20:19:10.891Z,12.72
2019-05-16T20:25:02.338Z,12.55
2019-05-16T20:27:31.851Z,12.44
2019-05-16T20:30:42.483Z,12.37
2019-05-16T20:36:28.985Z,12.21
2019-05-16T20:38:58.471Z,12.16
2019-05-16T20:41:28.336Z,12.12
2019-05-16T20:43:58.318Z,12.06
2019-05-16T20:46:49.732Z,11.99
2019-05-16T20:49:19.477Z,11.94
2019-05-16T20:51:50.015Z,11.85
2019-05-16T20:54:20.594Z,11.76
2019-05-16T21:00:18.238Z,11.61
2019-05-16T21:02:49.515Z,11.57
2019-05-16T21:05:58.626Z,11.48
2019-05-16T21:11:39.422Z,11.27
2019-05-16T21:14:09.089Z,11.18
2019-05-16T21:16:38.815Z,11.14
2019-05-16T21:19:08.257Z,11.13
2019-05-16T21:21:37.774Z,11.11
2019-05-16T21:27:19.063Z,10.98
2019-05-16T21:29:48.656Z,10.86
2019-05-16T21:32:18.101Z,10.80
2019-05-16T21:34:48.150Z,10.79
2019-05-16T21:37:57.352Z,10.73
2019-05-16T21:40:26.922Z,10.68
2019-05-16T21:42:58.720Z,10.62
2019-05-16T21:45:28.687Z,10.54
2019-05-16T21:48:00.580Z,10.49
2019-05-16T21:50:49.332Z,10.45
2019-05-16T21:53:31.980Z,10.36
2019-05-16T21:56:01.364Z,10.26
2019-05-16T21:58:30.895Z,10.22
2019-05-16T22:01:39.610Z,10.19
2019-05-16T22:04:09.011Z,10.18
2019-05-16T22:06:38.376Z,10.05
2019-05-16T22:09:47.682Z,9.98
2019-05-16T22:12:17.442Z,9.89
2019-05-16T22:14:52.895Z,9.78
2019-05-16T22:17:22.370Z,9.74
2019-05-16T22:20:00.325Z,9.72
2019-05-16T22:23:09.197Z,9.71
2019-05-16T22:26:18.435Z,9.69
2019-05-16T22:28:49.603Z,9.68
2019-05-16T22:31:19.351Z,9.61
2019-05-16T22:34:28.545Z,9.40
2019-05-16T22:36:57.936Z,9.32
2019-05-16T22:39:28.195Z,9.20
2019-05-16T22:41:57.775Z,9.21
2019-05-16T22:47:48.336Z,9.22
2019-05-16T22:53:44.930Z,9.20
2019-05-16T22:56:14.460Z,9.17
2019-05-16T23:01:39.520Z,9.14
2019-05-16T23:07:18.168Z,9.15
2019-05-16T23:09:47.537Z,9.11
2019-05-16T23:12:17.497Z,9.09
2019-05-16T23:14:48.890Z,9.08
2019-05-16T23:17:18.301Z,9.08
2019-05-16T23:20:27.745Z,9.10
2019-05-16T23:22:58.366Z,9.07
2019-05-16T23:25:28.133Z,8.99
2019-05-16T23:27:57.712Z,8.97
2019-05-16T23:30:27.340Z,8.97
2019-05-16T23:32:58.310Z,8.97
2019-05-16T23:38:20.050Z,8.84
2019-05-16T23:41:07.281Z,8.80
2019-05-16T23:43:37.565Z,8.79
2019-05-16T23:46:08.523Z,8.79
2019-05-16T23:48:38.075Z,8.78
2019-05-16T23:51:07.983Z,8.74
2019-05-16T23:53:40.175Z,8.72
2019-05-16T23:56:09.578Z,8.72
2019-05-16T23:59:18.655Z,8.68
